Time;durP1;ratioP1;P1;durP2;ratioP2;P2;SDS_P1;SDS_P2;PMS_P1;PMS_P2;Temp;Humidity;BMP_temperature;BMP_pressure;BME280_temperature;BME280_humidity;BME280_pressure;Samples;Min_cycle;Max_cycle;Signal;HPM_P1;HPM_P2
2021/01/24 00:01:13;;;;;;;2.30;1.93;;;2.70;45.50;;;;;;5112261;28;20164;-74
2021/01/24 00:03:38;;;;;;;2.57;2.03;;;2.70;45.10;;;;;;5112240;28;20177;-73
2021/01/24 00:06:04;;;;;;;3.00;2.60;;;2.70;44.80;;;;;;5112173;28;20192;-74
2021/01/24 00:08:30;;;;;;;3.60;2.47;;;2.60;45.10;;;;;;5112062;28;20172;-74
2021/01/24 00:10:55;;;;;;;5.23;3.23;;;2.60;45.60;;;;;;5111405;28;20211;-74
2021/01/24 00:13:21;;;;;;;3.13;2.83;;;2.40;46.00;;;;;;5093734;28;20249;-74
2021/01/24 00:15:46;;;;;;;3.00;2.43;;;2.30;46.30;;;;;;5112030;28;20272;-73
2021/01/24 00:18:12;;;;;;;3.07;2.27;;;2.30;47.20;;;;;;5111713;28;20184;-72
2021/01/24 00:20:37;;;;;;;4.23;2.30;;;2.30;48.20;;;;;;5092781;28;20321;-74
2021/01/24 00:23:03;;;;;;;2.50;2.07;;;2.30;48.60;;;;;;5111809;28;20263;-74
2021/01/24 00:25:28;;;;;;;2.40;1.77;;;2.30;48.20;;;;;;5112014;28;20199;-74
2021/01/24 00:27:54;;;;;;;2.57;1.97;;;2.30;48.40;;;;;;5111661;28;20650;-74
2021/01/24 00:30:20;;;;;;;2.20;1.90;;;2.40;48.70;;;;;;5111233;28;20630;-74
2021/01/24 00:32:45;;;;;;;1.87;1.47;;;2.40;48.90;;;;;;5111308;28;20173;-73
2021/01/24 00:35:12;;;;;;;2.40;2.00;;;2.40;48.30;;;;;;5111118;28;20241;-73
2021/01/24 00:37:38;;;;;;;1.73;1.42;;;2.40;48.30;;;;;;5111388;28;20180;-72
2021/01/24 00:40:06;;;;;;;1.83;1.65;;;2.50;48.90;;;;;;5110821;28;20204;-72
2021/01/24 00:42:32;;;;;;;2.75;1.45;;;2.50;48.20;;;;;;5111507;28;20184;-73
2021/01/24 00:44:57;;;;;;;1.40;1.00;;;2.50;48.20;;;;;;5111508;28;20520;-72
2021/01/24 00:47:23;;;;;;;1.60;1.43;;;2.40;48.20;;;;;;5092865;28;20245;-72
2021/01/24 00:49:49;;;;;;;1.43;1.23;;;2.40;48.50;;;;;;5092484;28;20175;-73
2021/01/24 00:52:14;;;;;;;1.40;1.10;;;2.40;49.00;;;;;;5093001;28;20173;-72
2021/01/24 00:54:40;;;;;;;2.13;1.67;;;2.40;49.40;;;;;;5111579;28;20172;-72
2021/01/24 00:57:05;;;;;;;1.90;1.20;;;2.50;48.90;;;;;;5093099;28;20196;-72
2021/01/24 00:59:31;;;;;;;1.27;0.90;;;2.50;49.10;;;;;;5092221;28;20207;-72
2021/01/24 01:01:57;;;;;;;1.67;0.90;;;2.50;48.80;;;;;;5093046;28;20179;-72
2021/01/24 01:04:23;;;;;;;1.47;0.90;;;2.60;48.20;;;;;;5111258;28;20379;-72
2021/01/24 01:06:49;;;;;;;5.47;0.97;;;2.60;48.10;;;;;;5111342;28;20820;-72
2021/01/24 01:09:14;;;;;;;4.30;0.63;;;2.70;47.70;;;;;;5092845;28;20298;-73
2021/01/24 01:11:40;;;;;;;1.03;0.57;;;2.70;47.30;;;;;;5111701;28;20252;-73
2021/01/24 01:14:05;;;;;;;1.60;0.83;;;2.70;47.20;;;;;;5111361;28;20177;-72
2021/01/24 01:16:31;;;;;;;1.73;0.90;;;2.70;47.30;;;;;;5111718;28;20193;-73
2021/01/24 01:18:57;;;;;;;1.67;1.00;;;2.80;47.50;;;;;;5111915;28;20291;-72
2021/01/24 01:21:22;;;;;;;1.40;0.90;;;2.80;59.90;;;;;;5111846;28;20251;-72
2021/01/24 01:23:48;;;;;;;1.30;0.80;;;2.90;56.20;;;;;;5111299;28;20169;-72
2021/01/24 01:26:15;;;;;;;1.43;0.83;;;2.90;47.90;;;;;;5111165;28;20461;-72
2021/01/24 01:28:40;;;;;;;2.13;1.00;;;3.00;46.50;;;;;;5112225;28;20176;-72
2021/01/24 01:31:06;;;;;;;1.20;0.60;;;3.00;46.50;;;;;;5093247;28;20180;-73
2021/01/24 01:33:31;;;;;;;1.50;0.90;;;3.10;45.50;;;;;;5115481;28;20227;-73
2021/01/24 01:35:57;;;;;;;1.60;0.90;;;3.10;46.00;;;;;;5115200;28;20234;-73
2021/01/24 01:38:23;;;;;;;1.17;0.80;;;3.10;45.40;;;;;;5096876;28;20235;-74
2021/01/24 01:40:51;;;;;;;1.30;0.70;;;3.20;45.00;;;;;;5115252;28;20176;-73
2021/01/24 01:43:17;;;;;;;1.25;0.88;;;3.20;44.80;;;;;;5115693;28;20179;-73
2021/01/24 01:45:42;;;;;;;1.50;0.90;;;3.10;44.50;;;;;;5115029;28;20188;-73
2021/01/24 01:48:08;;;;;;;1.00;0.50;;;3.10;44.20;;;;;;5115204;28;20180;-73
2021/01/24 01:50:34;;;;;;;1.30;0.60;;;3.00;44.10;;;;;;5114706;28;20169;-73
2021/01/24 01:53:00;;;;;;;1.67;0.70;;;2.90;44.50;;;;;;5114981;28;20175;-73
2021/01/24 01:55:26;;;;;;;1.13;0.70;;;2.90;44.80;;;;;;5114818;28;20192;-73
2021/01/24 01:57:54;;;;;;;1.40;0.80;;;2.90;46.20;;;;;;5115383;28;20176;-73
2021/01/24 02:00:20;;;;;;;1.10;0.60;;;2.90;45.90;;;;;;5114034;28;20204;-73
2021/01/24 02:03:17;;;;;;;1.55;0.80;;;2.90;45.80;;;;;;5114788;28;20172;-73
2021/01/24 02:05:59;;;;;;;1.05;0.65;;;2.90;46.00;;;;;;5114626;28;20195;-73
2021/01/24 02:08:33;;;;;;;2.80;0.68;;;2.90;45.50;;;;;;5114652;28;20185;-73
2021/01/24 02:11:12;;;;;;;2.00;0.88;;;3.00;45.60;;;;;;5095496;28;20191;-73
2021/01/24 02:13:40;;;;;;;1.08;0.70;;;3.00;45.00;;;;;;5114462;28;20168;-73
2021/01/24 02:16:06;;;;;;;1.63;0.60;;;3.10;44.40;;;;;;5114166;28;20197;-73
2021/01/24 02:18:34;;;;;;;1.45;0.65;;;3.10;44.00;;;;;;5095839;28;20624;-74
2021/01/24 02:21:03;;;;;;;1.05;0.60;;;3.10;44.30;;;;;;5095515;28;20189;-73
2021/01/24 02:23:31;;;;;;;0.93;0.50;;;3.00;44.60;;;;;;5114042;28;20164;-73
2021/01/24 02:26:11;;;;;;;1.00;0.50;;;3.00;44.40;;;;;;5114278;28;20653;-73
2021/01/24 02:29:18;;;;;;;1.00;0.60;;;3.00;44.90;;;;;;5114044;28;20173;-73
2021/01/24 02:31:46;;;;;;;0.90;0.40;;;2.80;45.60;;;;;;5050886;28;20205;-74
2021/01/24 02:34:15;;;;;;;1.00;0.50;;;2.70;46.20;;;;;;5034191;28;20190;-73
2021/01/24 02:36:41;;;;;;;0.90;0.40;;;2.50;46.70;;;;;;5081952;28;20235;-73
2021/01/24 02:39:08;;;;;;;1.00;0.50;;;2.50;47.10;;;;;;5113329;28;20216;-73
2021/01/24 02:41:34;;;;;;;0.90;0.43;;;2.40;46.50;;;;;;5114127;28;20176;-73
2021/01/24 02:44:01;;;;;;;1.00;0.40;;;2.40;46.40;;;;;;5095580;28;20179;-73
2021/01/24 02:46:29;;;;;;;1.08;0.50;;;2.30;46.80;;;;;;5095234;28;20266;-73
2021/01/24 02:48:55;;;;;;;1.58;0.73;;;2.20;46.90;;;;;;5113434;28;20668;-73
2021/01/24 02:51:21;;;;;;;1.40;0.50;;;2.30;47.70;;;;;;5095587;28;20176;-71
2021/01/24 02:53:48;;;;;;;0.90;0.40;;;2.30;47.80;;;;;;5113823;28;20168;-72
2021/01/24 02:56:18;;;;;;;1.20;0.57;;;2.30;48.10;;;;;;5113785;28;20695;-72
2021/01/24 02:58:44;;;;;;;1.20;0.50;;;2.30;48.00;;;;;;5112970;28;20200;-72
2021/01/24 03:01:09;;;;;;;0.98;0.52;;;2.30;47.10;;;;;;5113312;28;20588;-73
2021/01/24 03:03:35;;;;;;;1.20;0.60;;;2.30;46.20;;;;;;5095299;28;20169;-73
2021/01/24 03:06:01;;;;;;;1.00;0.50;;;2.30;46.00;;;;;;5113307;28;20216;-73
2021/01/24 03:08:26;;;;;;;1.10;0.50;;;2.20;45.80;;;;;;5095370;28;20225;-73
2021/01/24 03:10:52;;;;;;;1.20;0.70;;;2.20;45.80;;;;;;5112907;28;20237;-73
2021/01/24 03:13:21;;;;;;;1.47;0.60;;;2.20;45.80;;;;;;5113362;28;20173;-73
2021/01/24 03:15:48;;;;;;;1.77;0.60;;;2.10;45.80;;;;;;5113417;28;20926;-73
2021/01/24 03:18:20;;;;;;;1.10;0.70;;;2.20;46.70;;;;;;5113144;28;20172;-73
2021/01/24 03:20:50;;;;;;;1.13;0.60;;;2.10;46.90;;;;;;5113297;28;20191;-73
2021/01/24 03:23:16;;;;;;;1.00;0.52;;;2.10;46.60;;;;;;5114808;28;20267;-73
2021/01/24 03:25:43;;;;;;;0.98;0.50;;;2.10;46.50;;;;;;5095911;28;20197;-73
2021/01/24 03:28:09;;;;;;;1.55;0.80;;;2.20;46.40;;;;;;5095105;28;20191;-73
2021/01/24 03:30:35;;;;;;;1.10;0.60;;;2.20;45.80;;;;;;5112446;28;20265;-73
2021/01/24 03:33:02;;;;;;;1.10;0.63;;;2.10;45.80;;;;;;5112764;28;20165;-73
2021/01/24 03:38:01;;;;;;;1.10;0.50;;;2.10;45.80;;;;;;5070789;28;20212;-77
2021/01/24 03:40:27;;;;;;;1.27;0.73;;;2.20;46.50;;;;;;5071367;28;20217;-77
2021/01/24 03:42:53;;;;;;;1.10;0.60;;;2.20;45.90;;;;;;5072009;28;20510;-78
2021/01/24 03:45:18;;;;;;;1.27;0.80;;;2.10;45.80;;;;;;5072277;28;20170;-77
2021/01/24 03:47:44;;;;;;;2.20;0.70;;;2.10;45.80;;;;;;5053977;28;20204;-77
2021/01/24 03:50:10;;;;;;;1.10;0.60;;;2.20;45.80;;;;;;5071423;28;20638;-78
2021/01/24 03:52:36;;;;;;;1.67;1.05;;;2.20;46.50;;;;;;5059402;28;20189;-77
2021/01/24 03:55:03;;;;;;;1.97;1.00;;;2.10;45.80;;;;;;5073642;28;20701;-77
2021/01/24 03:57:28;;;;;;;1.15;0.65;;;2.00;45.70;;;;;;5071533;28;20206;-77
2021/01/24 03:59:54;;;;;;;1.00;0.60;;;2.00;45.20;;;;;;5071013;28;20671;-77
2021/01/24 04:02:21;;;;;;;2.80;0.60;;;1.90;45.60;;;;;;5070315;28;20235;-77
2021/01/24 04:04:46;;;;;;;8.13;1.10;;;1.80;45.50;;;;;;5071762;28;20201;-77
2021/01/24 04:07:12;;;;;;;1.60;0.93;;;1.70;45.40;;;;;;5071528;28;20193;-77
2021/01/24 04:09:38;;;;;;;1.30;0.70;;;1.70;45.40;;;;;;5053048;28;20192;-77
2021/01/24 04:12:04;;;;;;;2.37;1.47;;;1.60;45.40;;;;;;5071369;28;20177;-77
2021/01/24 04:14:29;;;;;;;1.37;1.00;;;1.60;45.30;;;;;;5071317;28;20532;-77
2021/01/24 04:16:55;;;;;;;1.63;1.03;;;1.50;45.30;;;;;;5071137;28;20212;-77
2021/01/24 04:19:20;;;;;;;2.13;0.97;;;1.40;45.20;;;;;;5070498;28;20208;-78
2021/01/24 04:21:46;;;;;;;1.93;1.33;;;1.40;45.20;;;;;;5053506;28;20180;-78
2021/01/24 04:24:11;;;;;;;2.07;1.10;;;1.40;45.10;;;;;;5071088;28;20239;-77
2021/01/24 04:26:37;;;;;;;1.77;1.33;;;1.40;43.60;;;;;;5071129;28;20208;-78
2021/01/24 04:29:03;;;;;;;2.30;1.50;;;1.50;42.90;;;;;;5069350;28;20274;-78
2021/01/24 04:31:28;;;;;;;3.03;1.10;;;1.50;42.60;;;;;;5071258;28;20223;-77
2021/01/24 04:33:54;;;;;;;2.80;1.10;;;1.50;42.00;;;;;;5071261;28;20591;-77
2021/01/24 04:36:19;;;;;;;1.73;1.23;;;1.40;42.10;;;;;;5071138;28;20223;-77
2021/01/24 04:38:45;;;;;;;1.97;1.30;;;1.40;42.20;;;;;;5070324;28;20677;-77
2021/01/24 04:41:11;;;;;;;1.83;1.47;;;1.50;41.60;;;;;;5070880;28;20170;-77
2021/01/24 04:43:37;;;;;;;2.00;1.27;;;1.50;40.70;;;;;;5071045;28;20256;-78
2021/01/24 04:46:03;;;;;;;1.60;1.17;;;1.50;38.20;;;;;;5070896;28;20461;-77
2021/01/24 04:48:29;;;;;;;2.77;1.87;;;1.50;37.20;;;;;;5052812;28;20423;-77
2021/01/24 04:50:55;;;;;;;1.77;1.38;;;1.60;36.40;;;;;;5070383;28;20179;-78
2021/01/24 04:53:21;;;;;;;1.97;1.77;;;1.60;35.70;;;;;;5052926;28;20181;-75
2021/01/24 04:55:49;;;;;;;5.55;1.98;;;1.60;35.30;;;;;;5070893;28;20216;-75
2021/01/24 04:58:15;;;;;;;1.77;1.40;;;1.60;35.30;;;;;;5069249;28;20174;-77
2021/01/24 05:00:41;;;;;;;1.70;1.38;;;1.60;34.50;;;;;;5052042;28;20521;-77
2021/01/24 05:03:06;;;;;;;3.70;2.00;;;1.60;33.60;;;;;;5070686;28;20184;-76
2021/01/24 05:05:32;;;;;;;3.77;1.57;;;1.60;33.50;;;;;;5070384;28;20595;-76
2021/01/24 05:07:58;;;;;;;2.67;1.93;;;1.60;33.50;;;;;;5069883;28;20718;-77
2021/01/24 05:10:26;;;;;;;2.28;1.70;;;1.60;34.40;;;;;;5051920;28;20176;-76
2021/01/24 05:12:52;;;;;;;3.30;2.08;;;1.60;35.30;;;;;;5052585;28;20207;-76
2021/01/24 05:15:18;;;;;;;2.42;2.00;;;1.50;37.00;;;;;;5070505;28;20173;-76
2021/01/24 05:17:50;;;;;;;2.05;1.70;;;1.30;39.00;;;;;;5070535;28;20199;-76
2021/01/24 05:20:17;;;;;;;3.58;2.40;;;1.20;38.70;;;;;;5051698;28;20239;-76
2021/01/24 05:22:42;;;;;;;2.50;2.30;;;1.00;38.90;;;;;;5052370;28;20189;-76
2021/01/24 05:25:09;;;;;;;2.30;1.77;;;0.90;38.30;;;;;;5070392;28;20171;-77
2021/01/24 05:27:34;;;;;;;2.92;2.55;;;0.80;38.60;;;;;;5070219;28;20191;-77
2021/01/24 05:30:00;;;;;;;2.83;2.50;;;0.70;39.10;;;;;;5070072;28;20578;-77
2021/01/24 05:32:25;;;;;;;2.57;2.07;;;0.70;39.20;;;;;;5070010;28;20260;-76
2021/01/24 05:34:51;;;;;;;2.30;2.10;;;0.70;39.60;;;;;;5070394;28;20220;-76
2021/01/24 05:37:17;;;;;;;4.03;2.40;;;0.70;38.20;;;;;;5070023;28;20645;-76
2021/01/24 05:39:43;;;;;;;3.60;2.63;;;0.70;37.40;;;;;;5069557;28;20207;-76
2021/01/24 05:42:11;;;;;;;3.40;2.67;;;0.70;36.90;;;;;;5070257;28;20413;-76
2021/01/24 05:44:38;;;;;;;2.55;2.35;;;0.70;36.40;;;;;;5070245;28;20185;-76
2021/01/24 05:47:04;;;;;;;2.80;2.53;;;0.60;36.70;;;;;;5052239;28;20667;-76
2021/01/24 05:49:31;;;;;;;6.20;2.27;;;0.50;35.90;;;;;;5069579;28;20265;-77
2021/01/24 05:52:07;;;;;;;4.45;2.75;;;0.40;35.50;;;;;;5052209;28;20569;-77
2021/01/24 05:54:46;;;;;;;3.22;2.65;;;0.40;35.60;;;;;;5070142;28;20176;-77
2021/01/24 05:57:13;;;;;;;3.38;2.63;;;0.40;35.80;;;;;;5070201;28;20223;-77
2021/01/24 05:59:56;;;;;;;2.05;1.85;;;0.30;35.00;;;;;;5051338;28;20207;-77
2021/01/24 06:02:23;;;;;;;2.67;2.30;;;0.20;34.90;;;;;;5070261;28;20178;-76
2021/01/24 06:04:50;;;;;;;3.53;2.35;;;0.20;34.90;;;;;;5070223;28;20226;-77
2021/01/24 06:07:16;;;;;;;3.25;1.92;;;0.20;35.40;;;;;;5070045;28;20192;-77
2021/01/24 06:09:43;;;;;;;2.40;2.10;;;0.10;35.60;;;;;;5069783;28;20179;-77
2021/01/24 06:12:09;;;;;;;3.53;2.47;;;0.10;35.90;;;;;;5070028;28;20258;-77
2021/01/24 06:14:38;;;;;;;4.18;2.03;;;0.00;36.00;;;;;;5069969;28;20260;-77
2021/01/24 06:17:30;;;;;;;2.90;2.50;;;0.00;35.10;;;;;;5070203;28;20203;-76
2021/01/24 06:20:00;;;;;;;2.50;2.17;;;0.00;35.00;;;;;;5072818;28;20293;-76
2021/01/24 06:22:32;;;;;;;4.57;2.47;;;0.00;35.00;;;;;;5073681;28;20179;-76
2021/01/24 06:25:01;;;;;;;2.00;1.80;;;0.00;34.30;;;;;;5073456;28;20200;-76
2021/01/24 06:27:34;;;;;;;2.40;2.17;;;0.00;34.80;;;;;;5055370;28;20198;-76
2021/01/24 06:30:01;;;;;;;3.05;2.25;;;0.00;34.00;;;;;;5072786;28;20196;-76
2021/01/24 06:32:30;;;;;;;2.30;2.10;;;0.00;34.00;;;;;;5055749;28;20706;-76
2021/01/24 06:35:14;;;;;;;3.58;2.38;;;0.00;34.70;;;;;;5072034;28;20592;-76
2021/01/24 06:38:06;;;;;;;2.47;2.28;;;0.10;34.00;;;;;;5072933;28;20271;-76
2021/01/24 06:40:32;;;;;;;2.90;2.25;;;0.10;34.60;;;;;;5071869;28;20222;-76
2021/01/24 06:43:03;;;;;;;2.30;2.10;;;0.10;34.40;;;;;;5073193;28;20186;-76
2021/01/24 06:45:28;;;;;;;2.55;2.20;;;0.20;34.10;;;;;;5055115;28;20216;-76
2021/01/24 06:47:58;;;;;;;3.00;2.20;;;0.20;34.10;;;;;;5072291;28;20207;-76
2021/01/24 06:50:41;;;;;;;2.80;2.53;;;0.30;34.20;;;;;;5072427;28;20176;-75
2021/01/24 06:53:10;;;;;;;2.15;1.95;;;0.40;34.30;;;;;;5073131;28;20205;-74
2021/01/24 06:55:37;;;;;;;2.35;2.15;;;0.30;34.20;;;;;;5072923;28;20177;-74
2021/01/24 06:58:29;;;;;;;3.30;2.60;;;0.30;33.80;;;;;;5073213;28;20172;-74
2021/01/24 07:01:20;;;;;;;2.53;2.03;;;0.20;33.60;;;;;;5072285;28;20187;-74
2021/01/24 07:03:45;;;;;;;3.55;2.30;;;0.20;33.70;;;;;;5072654;28;20170;-74
2021/01/24 07:06:30;;;;;;;4.07;2.43;;;0.30;33.40;;;;;;5072562;28;20201;-74
2021/01/24 07:08:56;;;;;;;3.08;1.98;;;0.30;33.40;;;;;;5071872;28;20258;-74
2021/01/24 07:11:52;;;;;;;2.40;1.50;;;0.40;32.80;;;;;;5072763;28;20601;-74
2021/01/24 07:14:33;;;;;;;2.00;1.80;;;0.50;32.50;;;;;;5072479;28;20181;-74
2021/01/24 07:17:11;;;;;;;2.47;2.00;;;0.60;32.70;;;;;;5072355;28;20655;-74
2021/01/24 07:19:45;;;;;;;2.70;2.45;;;0.60;32.40;;;;;;5071661;28;20330;-74
2021/01/24 07:22:11;;;;;;;2.20;2.00;;;0.60;31.80;;;;;;5072340;28;20356;-74
2021/01/24 07:24:39;;;;;;;2.85;2.17;;;0.60;31.30;;;;;;5072265;28;20256;-74
2021/01/24 07:27:10;;;;;;;3.95;2.40;;;0.70;31.20;;;;;;5072206;28;20220;-74
2021/01/24 07:29:36;;;;;;;3.65;2.22;;;0.70;31.10;;;;;;5071323;28;20675;-74
2021/01/24 07:32:10;;;;;;;4.77;2.43;;;0.80;30.90;;;;;;5072374;28;20180;-74
2021/01/24 07:34:36;;;;;;;2.63;2.40;;;0.80;30.40;;;;;;5071987;28;20412;-74
2021/01/24 07:37:04;;;;;;;3.22;2.22;;;0.80;29.70;;;;;;5072116;28;20283;-74
2021/01/24 07:39:30;;;;;;;3.97;1.80;;;0.80;30.10;;;;;;5071448;28;20193;-74
2021/01/24 07:41:56;;;;;;;2.88;2.60;;;0.80;30.30;;;;;;5072034;28;20179;-74
2021/01/24 07:44:22;;;;;;;6.70;2.40;;;0.80;30.10;;;;;;5071935;28;20238;-74
2021/01/24 07:46:48;;;;;;;4.80;2.50;;;0.90;30.60;;;;;;5071975;28;20211;-74
2021/01/24 07:49:14;;;;;;;2.90;1.87;;;1.00;29.90;;;;;;5071197;28;20192;-74
2021/01/24 07:51:40;;;;;;;3.35;2.35;;;1.00;29.60;;;;;;5071622;28;20180;-76
2021/01/24 07:54:06;;;;;;;3.35;2.15;;;1.00;29.20;;;;;;5053935;28;20190;-76
2021/01/24 07:56:31;;;;;;;7.20;2.97;;;1.10;29.10;;;;;;5071601;28;20190;-76
2021/01/24 07:58:58;;;;;;;3.10;2.40;;;1.10;28.60;;;;;;5052842;28;20215;-76
2021/01/24 08:01:24;;;;;;;3.25;2.45;;;1.10;28.40;;;;;;5071775;28;20256;-76
2021/01/24 08:03:50;;;;;;;3.63;2.77;;;1.20;28.70;;;;;;5071609;28;20587;-76
2021/01/24 08:06:16;;;;;;;3.50;2.22;;;1.20;28.40;;;;;;5071362;28;20938;-76
2021/01/24 08:08:43;;;;;;;3.35;2.30;;;1.30;28.50;;;;;;5071336;28;20178;-76
2021/01/24 08:11:09;;;;;;;2.40;2.15;;;1.30;28.40;;;;;;5070994;28;20171;-76
2021/01/24 08:13:37;;;;;;;2.42;2.22;;;1.40;28.40;;;;;;5053383;28;20197;-76
2021/01/24 08:16:10;;;;;;;3.65;2.67;;;1.40;28.40;;;;;;5071387;28;20197;-76
2021/01/24 08:18:38;;;;;;;2.50;2.28;;;1.40;28.30;;;;;;5053126;28;20296;-76
2021/01/24 08:21:04;;;;;;;3.30;2.20;;;1.40;32.20;;;;;;5070593;28;20173;-76
2021/01/24 08:23:29;;;;;;;2.97;2.45;;;1.50;28.30;;;;;;5071111;28;20170;-76
2021/01/24 08:25:57;;;;;;;6.90;4.23;;;1.50;28.00;;;;;;5071063;28;20732;-76
2021/01/24 08:28:23;;;;;;;3.83;3.53;;;1.50;27.70;;;;;;5071342;28;20722;-76
2021/01/24 08:30:49;;;;;;;4.15;3.08;;;1.40;27.50;;;;;;5070376;28;20551;-76
2021/01/24 08:33:18;;;;;;;4.40;4.00;;;1.30;27.70;;;;;;5070905;28;20181;-76
2021/01/24 08:35:46;;;;;;;4.30;3.75;;;1.20;27.40;;;;;;5070650;28;20169;-76
2021/01/24 08:38:13;;;;;;;4.38;3.55;;;1.20;27.90;;;;;;5071173;28;20173;-76
2021/01/24 08:40:40;;;;;;;3.45;2.85;;;1.20;27.90;;;;;;5070311;28;20268;-76
2021/01/24 08:43:06;;;;;;;2.50;2.08;;;1.30;28.20;;;;;;5070830;28;20269;-76
2021/01/24 08:45:32;;;;;;;3.63;2.65;;;1.40;27.50;;;;;;5070961;28;20181;-76
2021/01/24 08:48:00;;;;;;;4.07;2.53;;;1.50;26.40;;;;;;5071176;28;20173;-76
2021/01/24 08:50:33;;;;;;;4.05;3.13;;;1.60;26.40;;;;;;5070204;28;20235;-76
2021/01/24 08:53:01;;;;;;;3.55;3.22;;;1.70;26.20;;;;;;5070848;28;20170;-76
2021/01/24 08:55:27;;;;;;;4.70;4.00;;;1.80;26.80;;;;;;5070884;28;20178;-76
2021/01/24 08:57:53;;;;;;;3.60;2.90;;;1.80;26.30;;;;;;5070697;28;20192;-76
2021/01/24 09:00:20;;;;;;;4.28;3.40;;;1.80;26.30;;;;;;5070278;28;20212;-76
2021/01/24 09:02:46;;;;;;;2.95;2.65;;;1.90;26.40;;;;;;5070612;28;20714;-76
2021/01/24 09:05:14;;;;;;;3.33;2.90;;;2.10;26.10;;;;;;5070524;28;20262;-76
2021/01/24 09:07:44;;;;;;;3.53;3.22;;;2.20;25.80;;;;;;5070494;28;20524;-76
2021/01/24 09:10:32;;;;;;;6.40;2.70;;;2.40;25.60;;;;;;5069901;28;20181;-76
2021/01/24 09:13:03;;;;;;;4.30;3.47;;;2.50;23.90;;;;;;5069281;28;20223;-76
2021/01/24 09:15:30;;;;;;;5.32;3.22;;;2.60;23.80;;;;;;5070464;28;20649;-76
2021/01/24 09:17:57;;;;;;;4.05;3.15;;;2.60;23.90;;;;;;5070562;28;20574;-76
2021/01/24 09:20:25;;;;;;;4.20;3.60;;;2.70;23.40;;;;;;5069649;28;20217;-76
2021/01/24 09:22:51;;;;;;;3.45;3.15;;;2.90;24.00;;;;;;5070289;28;20174;-76
2021/01/24 09:25:17;;;;;;;11.48;5.03;;;3.10;23.10;;;;;;5070542;28;20197;-76
2021/01/24 09:27:43;;;;;;;7.75;7.10;;;3.30;22.60;;;;;;5070241;28;20202;-76
2021/01/24 09:30:14;;;;;;;3.87;3.53;;;3.20;22.80;;;;;;5052017;28;20189;-76
2021/01/24 09:32:40;;;;;;;6.10;4.15;;;3.10;23.10;;;;;;5052579;28;20178;-76
2021/01/24 09:35:07;;;;;;;4.55;2.97;;;3.00;22.30;;;;;;5071225;28;20277;-76
2021/01/24 09:37:33;;;;;;;3.30;3.00;;;3.00;23.00;;;;;;5070643;28;20297;-76
2021/01/24 09:39:59;;;;;;;3.47;3.27;;;3.10;22.80;;;;;;5069696;28;20289;-76
2021/01/24 09:42:25;;;;;;;3.20;2.97;;;3.10;23.10;;;;;;5071162;28;20404;-77
2021/01/24 09:44:51;;;;;;;3.17;2.97;;;3.20;22.60;;;;;;5072573;28;20495;-78
2021/01/24 09:47:16;;;;;;;3.20;3.00;;;3.30;23.00;;;;;;5047263;28;20608;-73
2021/01/24 09:49:42;;;;;;;4.70;4.07;;;3.50;22.60;;;;;;5048362;28;20463;-73
2021/01/24 09:52:08;;;;;;;3.80;3.50;;;3.80;23.20;;;;;;5050128;28;20541;-73
2021/01/24 09:54:33;;;;;;;4.47;3.53;;;3.90;21.80;;;;;;5054324;28;20249;-73
2021/01/24 09:56:59;;;;;;;3.93;3.63;;;3.90;21.50;;;;;;5053872;28;20199;-73
2021/01/24 09:59:24;;;;;;;3.40;3.10;;;3.60;21.90;;;;;;5053576;28;20202;-74
2021/01/24 10:01:50;;;;;;;4.37;3.57;;;3.50;22.50;;;;;;5054154;28;20179;-74
2021/01/24 10:04:16;;;;;;;3.37;3.07;;;3.60;22.90;;;;;;5056683;28;20521;-77
2021/01/24 10:06:41;;;;;;;3.17;2.87;;;3.60;22.30;;;;;;5054398;28;20195;-73
2021/01/24 10:09:07;;;;;;;2.60;2.40;;;3.50;22.60;;;;;;5055206;28;20183;-73
2021/01/24 10:11:33;;;;;;;3.17;2.97;;;3.30;22.90;;;;;;5055426;28;20282;-73
2021/01/24 10:13:59;;;;;;;3.47;3.20;;;3.30;23.20;;;;;;5054575;28;20225;-74
2021/01/24 10:16:25;;;;;;;4.13;3.10;;;3.20;23.10;;;;;;5056009;28;20428;-73
2021/01/24 10:18:50;;;;;;;2.83;2.60;;;3.20;23.70;;;;;;5053445;28;20487;-73
2021/01/24 10:21:16;;;;;;;4.40;3.00;;;3.30;23.20;;;;;;5054814;28;20206;-73
2021/01/24 10:23:42;;;;;;;3.20;3.00;;;3.50;23.30;;;;;;5035886;28;20191;-73
2021/01/24 10:26:07;;;;;;;2.90;2.70;;;3.80;23.50;;;;;;5061459;28;20206;-74
2021/01/24 10:28:34;;;;;;;3.27;2.70;;;4.00;23.00;;;;;;5072375;28;20456;-73
2021/01/24 10:30:59;;;;;;;5.70;4.05;;;4.00;21.90;;;;;;5070706;28;20214;-73
2021/01/24 10:33:25;;;;;;;3.47;3.23;;;3.70;22.40;;;;;;5071486;28;20682;-74
2021/01/24 10:35:51;;;;;;;3.20;3.00;;;3.70;22.60;;;;;;5070724;28;20222;-75
2021/01/24 10:38:18;;;;;;;2.90;2.60;;;3.80;23.00;;;;;;5070324;28;20182;-73
2021/01/24 10:40:44;;;;;;;11.30;3.40;;;3.80;21.90;;;;;;5070069;28;20435;-73
2021/01/24 10:43:10;;;;;;;3.03;2.83;;;3.80;22.50;;;;;;5069780;28;20182;-74
2021/01/24 10:45:37;;;;;;;3.40;3.10;;;4.10;22.30;;;;;;5084782;28;20178;-73
2021/01/24 10:48:05;;;;;;;4.55;4.13;;;4.20;22.20;;;;;;5089956;28;20419;-74
2021/01/24 10:50:31;;;;;;;6.88;6.28;;;4.20;21.90;;;;;;5090184;28;20579;-74
2021/01/24 10:52:56;;;;;;;4.10;3.80;;;4.10;21.60;;;;;;5091034;28;20191;-74
2021/01/24 10:55:24;;;;;;;9.13;4.20;;;3.90;22.10;;;;;;5092141;28;20464;-74
2021/01/24 10:57:50;;;;;;;5.70;5.20;;;3.80;21.50;;;;;;5091098;28;20197;-74
2021/01/24 11:00:16;;;;;;;5.20;4.90;;;3.90;22.60;;;;;;5090047;28;20611;-74
2021/01/24 11:02:42;;;;;;;3.33;3.13;;;3.90;21.80;;;;;;5091130;28;20589;-74
2021/01/24 11:05:09;;;;;;;4.10;3.80;;;3.90;22.20;;;;;;5054964;28;20169;-74
2021/01/24 11:07:36;;;;;;;4.10;3.80;;;3.80;21.60;;;;;;5090365;28;20431;-74
2021/01/24 11:10:04;;;;;;;3.40;3.20;;;3.80;22.40;;;;;;5090195;28;20575;-73
2021/01/24 11:12:30;;;;;;;3.97;3.63;;;3.90;22.30;;;;;;5088360;28;20212;-74
2021/01/24 11:14:55;;;;;;;8.40;4.10;;;3.90;21.70;;;;;;5090505;28;20189;-73
2021/01/24 11:17:21;;;;;;;4.30;3.90;;;3.80;21.70;;;;;;5089779;28;20207;-74
2021/01/24 11:19:50;;;;;;;12.53;4.10;;;3.60;22.20;;;;;;5088369;28;20658;-74
2021/01/24 11:22:17;;;;;;;4.55;4.25;;;3.60;22.40;;;;;;5090670;28;20437;-74
2021/01/24 11:24:42;;;;;;;3.97;3.67;;;3.60;21.80;;;;;;5092562;28;20169;-73
2021/01/24 11:27:08;;;;;;;3.60;3.30;;;3.80;22.20;;;;;;5089302;28;20679;-74
2021/01/24 11:29:34;;;;;;;3.80;3.50;;;3.70;21.80;;;;;;5089023;28;20188;-74
2021/01/24 11:32:00;;;;;;;3.90;3.60;;;3.70;22.00;;;;;;5090146;28;20581;-74
2021/01/24 11:34:26;;;;;;;3.42;3.22;;;3.60;21.80;;;;;;5088354;28;20231;-74
2021/01/24 11:36:51;;;;;;;5.20;4.80;;;3.60;24.00;;;;;;5088739;28;20741;-73
2021/01/24 11:39:17;;;;;;;3.93;3.63;;;3.50;21.80;;;;;;5089326;28;20221;-73
2021/01/24 11:41:42;;;;;;;3.50;3.30;;;3.50;21.80;;;;;;5089170;28;20189;-73
2021/01/24 11:44:09;;;;;;;4.33;3.20;;;3.60;23.40;;;;;;5057257;28;20198;-73
2021/01/24 11:46:34;;;;;;;3.10;2.90;;;3.70;21.70;;;;;;5053506;28;20203;-73
2021/01/24 11:49:00;;;;;;;4.00;3.80;;;3.50;21.70;;;;;;5055201;28;20788;-73
2021/01/24 11:51:25;;;;;;;4.53;3.40;;;3.40;21.30;;;;;;5072980;28;20257;-73
2021/01/24 11:53:51;;;;;;;3.30;3.10;;;3.30;22.00;;;;;;5074612;28;20178;-73
2021/01/24 11:56:16;;;;;;;6.57;3.50;;;3.20;21.50;;;;;;5072740;28;20189;-73
2021/01/24 11:58:42;;;;;;;3.87;3.27;;;3.20;22.20;;;;;;5055241;28;20213;-73
2021/01/24 12:01:08;;;;;;;3.10;2.90;;;3.20;21.60;;;;;;5072215;28;20209;-74
2021/01/24 12:03:34;;;;;;;3.33;3.13;;;3.10;21.50;;;;;;5072566;28;20174;-73
2021/01/24 12:05:59;;;;;;;3.67;3.47;;;3.00;21.10;;;;;;5072526;28;20425;-73
2021/01/24 12:08:25;;;;;;;3.60;3.40;;;3.00;21.40;;;;;;5073877;28;20469;-73
2021/01/24 12:10:50;;;;;;;4.60;4.00;;;3.10;21.50;;;;;;5071308;28;20171;-74
2021/01/24 12:13:16;;;;;;;3.60;3.30;;;3.20;21.70;;;;;;5072686;28;20166;-74
2021/01/24 12:15:41;;;;;;;4.50;3.50;;;3.30;21.10;;;;;;5073452;28;20189;-73
2021/01/24 12:18:07;;;;;;;3.70;3.40;;;3.30;21.60;;;;;;5072220;28;20228;-73
2021/01/24 12:20:33;;;;;;;4.00;3.60;;;3.30;22.00;;;;;;5071690;28;20289;-73
2021/01/24 12:22:58;;;;;;;3.73;3.43;;;3.40;22.30;;;;;;5071440;28;20171;-74
2021/01/24 12:25:24;;;;;;;4.33;3.60;;;3.50;21.80;;;;;;5052245;28;20171;-73
2021/01/24 12:27:49;;;;;;;3.30;3.00;;;3.50;21.20;;;;;;5055722;28;20201;-74
2021/01/24 12:30:15;;;;;;;4.20;3.33;;;3.50;22.00;;;;;;5056117;28;20191;-74
2021/01/24 12:32:41;;;;;;;5.50;4.67;;;3.60;21.60;;;;;;5056381;28;20185;-74
2021/01/24 12:35:08;;;;;;;5.63;3.80;;;3.70;22.00;;;;;;5056429;28;20430;-74
2021/01/24 12:37:34;;;;;;;4.00;3.70;;;3.70;21.30;;;;;;5055141;28;20591;-74
2021/01/24 12:39:59;;;;;;;3.53;3.33;;;3.70;21.30;;;;;;5056000;28;20208;-73
2021/01/24 12:42:25;;;;;;;4.53;4.10;;;3.70;21.10;;;;;;5064594;28;20178;-74
2021/01/24 12:44:50;;;;;;;4.33;4.03;;;3.80;21.40;;;;;;5076416;28;20173;-76
2021/01/24 12:47:16;;;;;;;4.53;4.23;;;3.80;21.40;;;;;;5058258;28;20197;-74
2021/01/24 12:49:41;;;;;;;7.97;4.47;;;3.80;21.00;;;;;;5075690;28;20179;-73
2021/01/24 12:52:07;;;;;;;3.97;3.67;;;3.70;20.90;;;;;;5074960;28;20295;-73
2021/01/24 12:54:33;;;;;;;4.07;3.77;;;3.70;21.30;;;;;;5072705;28;20183;-74
2021/01/24 12:56:58;;;;;;;4.03;3.72;;;3.70;21.40;;;;;;5072535;28;20193;-74
2021/01/24 12:59:24;;;;;;;4.80;4.50;;;3.80;21.40;;;;;;5069673;28;20205;-72
2021/01/24 13:01:53;;;;;;;3.87;3.47;;;3.90;20.80;;;;;;5070651;28;20260;-74